Time;durP1;ratioP1;P1;durP2;ratioP2;P2;SDS_P1;SDS_P2;PMS_P1;PMS_P2;Temp;Humidity;BMP_temperature;BMP_pressure;BME280_temperature;BME280_humidity;BME280_pressure;Samples;Min_cycle;Max_cycle;Signal;HPM_P1;HPM_P2
2023/05/09 00:01:38;;;;;;;;;4.33;3.67;;;;;18.57;61.85;101339.84;5001803;28;45287;-73
2023/05/09 00:04:03;;;;;;;;;4.00;4.00;;;;;18.58;61.58;101340.66;5001795;28;45595;-73
2023/05/09 00:06:29;;;;;;;;;5.00;5.00;;;;;18.67;61.34;101353.94;5018930;28;45842;-74
2023/05/09 00:08:55;;;;;;;;;5.33;4.33;;;;;18.68;61.34;101352.06;5020017;28;45362;-74
2023/05/09 00:11:21;;;;;;;;;4.33;4.33;;;;;17.94;61.79;101236.91;5020107;28;45447;-74
2023/05/09 00:13:46;;;;;;;;;5.00;3.67;;;;;18.63;62.13;101359.88;5020105;28;45318;-74
2023/05/09 00:16:12;;;;;;;;;3.67;3.67;;;;;18.48;61.82;101322.91;5000598;28;46409;-75
2023/05/09 00:18:41;;;;;;;;;6.00;5.00;;;;;18.55;61.93;101326.56;5018552;28;45372;-72
2023/05/09 00:21:06;;;;;;;;;4.67;4.67;;;;;18.47;62.22;101318.56;5018564;28;45234;-73
2023/05/09 00:23:32;;;;;;;;;5.33;5.00;;;;;18.46;62.30;101319.56;5018693;28;45358;-73
2023/05/09 00:25:58;;;;;;;;;4.00;4.00;;;;;18.40;62.29;101301.44;5002985;28;49717;-74
2023/05/09 00:28:23;;;;;;;;;4.67;4.67;;;;;18.46;62.32;101316.88;5022187;28;45188;-72
2023/05/09 00:30:49;;;;;;;;;8.25;6.00;;;;;18.45;62.04;101296.38;4999467;28;45287;-74
2023/05/09 00:33:15;;;;;;;;;5.67;5.67;;;;;18.50;61.99;101303.88;5018638;28;45445;-72
2023/05/09 00:35:40;;;;;;;;;5.00;5.00;;;;;18.36;61.88;101300.13;5017978;28;45634;-73
2023/05/09 00:38:05;;;;;;;;;3.00;3.00;;;;;18.52;61.79;101315.31;5018253;28;45405;-73
2023/05/09 00:40:31;;;;;;;;;4.00;4.00;;;;;18.48;61.63;101317.53;5000405;28;45322;-72
2023/05/09 00:42:58;;;;;;;;;5.00;4.00;;;;;18.46;61.73;101310.66;5018277;28;45436;-73
2023/05/09 00:45:23;;;;;;;;;5.33;5.00;;;;;18.36;61.50;101283.97;5018213;28;46568;-72
2023/05/09 00:47:49;;;;;;;;;5.67;5.67;;;;;18.47;61.94;101306.94;5000175;28;45270;-74
2023/05/09 00:50:15;;;;;;;;;7.33;6.00;;;;;18.41;61.86;101280.72;5018116;28;45321;-74
2023/05/09 00:52:41;;;;;;;;;4.00;4.00;;;;;18.43;61.84;101278.72;5019683;28;45163;-74
2023/05/09 00:55:07;;;;;;;;;5.00;4.00;;;;;18.33;61.83;101261.97;5000177;28;47813;-72
2023/05/09 00:57:33;;;;;;;;;3.25;3.25;;;;;18.55;61.74;101304.16;5017839;28;45321;-74
2023/05/09 00:59:59;;;;;;;;;3.75;3.00;;;;;18.52;61.66;101286.53;5017985;28;45213;-73
2023/05/09 01:02:26;;;;;;;;;7.00;5.33;;;;;18.26;61.75;101239.50;5018088;28;45663;-73
2023/05/09 01:04:52;;;;;;;;;3.75;3.75;;;;;18.41;61.66;101269.97;4999533;28;47579;-73
2023/05/09 01:07:47;;;;;;;;;5.25;3.00;;;;;18.41;62.08;101280.72;4999732;28;45365;-73
2023/05/09 01:10:39;;;;;;;;;4.00;4.00;;;;;18.32;61.86;101271.06;4999895;28;45397;-73
2023/05/09 01:13:14;;;;;;;;;4.00;4.00;;;;;18.07;62.24;101232.78;5017428;28;45398;-73
2023/05/09 01:15:52;;;;;;;;;7.00;5.67;;;;;18.23;62.26;101256.88;4999524;28;48086;-74
2023/05/09 01:18:57;;;;;;;;;5.00;5.00;;;;;18.23;61.57;101262.25;5017786;28;45325;-74
2023/05/09 01:21:28;;;;;;;;;6.00;4.33;;;;;18.10;61.60;101237.78;4976603;28;45610;-73
2023/05/09 01:24:17;;;;;;;;;4.33;4.33;;;;;18.01;61.45;101231.63;5017540;28;45486;-73
2023/05/09 01:26:56;;;;;;;;;5.00;5.00;;;;;18.20;61.39;101255.34;5017077;28;46623;-73
2023/05/09 01:29:51;;;;;;;;;3.00;3.00;;;;;18.21;61.65;101254.31;5017214;28;45511;-72
2023/05/09 01:32:23;;;;;;;;;8.00;5.00;;;;;18.22;61.25;101244.44;4995414;28;45652;-73
2023/05/09 01:34:51;;;;;;;;;4.00;3.00;;;;;18.09;61.39;101222.66;5017476;28;45499;-74
2023/05/09 01:37:21;;;;;;;;;4.33;4.33;;;;;18.11;61.42;101220.63;5017057;28;45264;-73
2023/05/09 01:39:49;;;;;;;;;3.50;3.50;;;;;18.18;61.56;101237.69;5017191;28;45496;-73
2023/05/09 01:42:17;;;;;;;;;4.00;3.00;;;;;18.06;61.48;101218.47;4998631;28;45277;-74
2023/05/09 01:44:46;;;;;;;;;3.67;3.33;;;;;18.09;61.74;101231.56;4999789;28;45203;-73
2023/05/09 01:47:15;;;;;;;;;3.00;3.00;;;;;17.98;61.81;101215.00;4999201;28;48834;-74
2023/05/09 01:49:43;;;;;;;;;3.75;3.75;;;;;17.94;62.13;101215.38;5017862;28;45496;-72
2023/05/09 01:52:16;;;;;;;;;4.00;4.00;;;;;18.00;62.28;101219.19;4999342;28;45297;-75
2023/05/09 01:54:44;;;;;;;;;5.33;4.33;;;;;18.00;62.17;101210.28;5017330;28;45255;-73
2023/05/09 01:57:10;;;;;;;;;3.00;3.00;;;;;17.60;62.14;101153.91;5016575;28;46375;-74
2023/05/09 01:59:40;;;;;;;;;4.33;4.33;;;;;17.84;62.38;101208.59;4998995;28;45428;-74
2023/05/09 02:02:06;;;;;;;;;2.75;2.75;;;;;17.95;62.31;101224.28;4999023;28;45239;-73
2023/05/09 02:04:34;;;;;;;;;5.00;5.00;;;;;17.89;62.18;101216.94;4999721;28;45297;-74
2023/05/09 02:07:00;;;;;;;;;4.00;4.00;;;;;17.97;62.37;101229.47;5016854;28;45992;-74
2023/05/09 02:09:26;;;;;;;;;3.25;3.25;;;;;17.75;62.40;101197.03;5016793;28;45328;-75
2023/05/09 02:11:51;;;;;;;;;5.00;4.67;;;;;17.89;62.32;101201.63;4998785;28;45424;-74
2023/05/09 02:14:17;;;;;;;;;3.00;3.00;;;;;17.92;62.59;101201.28;5017888;28;45484;-73
2023/05/09 02:16:43;;;;;;;;;5.00;3.67;;;;;17.97;62.43;101216.03;5017297;28;45321;-74
2023/05/09 02:19:08;;;;;;;;;5.00;4.00;;;;;17.27;62.43;101109.50;5016966;28;45240;-74
2023/05/09 02:21:34;;;;;;;;;4.33;4.00;;;;;17.89;62.60;101217.78;4998833;28;45553;-74
2023/05/09 02:23:59;;;;;;;;;5.00;4.00;;;;;17.61;62.77;101173.56;4999080;28;45468;-74
2023/05/09 02:26:25;;;;;;;;;3.33;3.33;;;;;17.79;62.84;101201.03;4998581;28;48474;-76
2023/05/09 02:28:52;;;;;;;;;4.33;4.33;;;;;17.75;63.09;101194.34;4998581;28;45395;-73
2023/05/09 02:31:19;;;;;;;;;5.00;5.00;;;;;17.72;63.09;101199.25;4998770;28;45270;-74
2023/05/09 02:33:46;;;;;;;;;4.50;3.50;;;;;17.85;62.79;101221.00;5016614;28;45514;-74
2023/05/09 02:36:15;;;;;;;;;4.00;4.00;;;;;17.82;63.15;101210.59;5016347;28;45507;-73
2023/05/09 02:38:41;;;;;;;;;3.75;3.75;;;;;17.81;63.42;101206.22;5016580;28;45271;-73
2023/05/09 02:41:11;;;;;;;;;4.00;4.00;;;;;17.67;63.19;101178.25;4999068;28;45298;-74
2023/05/09 02:43:37;;;;;;;;;7.00;5.00;;;;;17.73;63.43;101187.47;5017213;28;45463;-74
2023/05/09 02:46:02;;;;;;;;;5.00;5.00;;;;;17.11;63.62;101086.25;5016174;28;52124;-74
2023/05/09 02:48:27;;;;;;;;;5.33;5.00;;;;;17.54;63.91;101172.63;5016185;28;45432;-73
2023/05/09 02:50:53;;;;;;;;;6.00;5.00;;;;;17.07;64.06;101101.06;5015607;28;62488;-73
2023/05/09 02:53:18;;;;;;;;;5.67;5.67;;;;;17.64;64.71;101202.81;4998562;28;45321;-73
2023/05/09 02:55:43;;;;;;;;;6.00;4.67;;;;;17.32;65.08;101144.72;5001765;28;48224;-72
2023/05/09 02:58:09;;;;;;;;;3.00;3.00;;;;;17.62;65.49;101194.09;5001756;28;45311;-73
2023/05/09 03:00:34;;;;;;;;;4.00;4.00;;;;;17.57;65.90;101191.91;5019800;28;45550;-75
2023/05/09 03:02:59;;;;;;;;;6.00;4.33;;;;;17.50;65.99;101192.81;5002013;28;45257;-74
2023/05/09 03:05:25;;;;;;;;;4.00;4.00;;;;;17.33;66.55;101151.75;5019758;28;45892;-72
2023/05/09 03:07:50;;;;;;;;;4.67;4.67;;;;;17.31;66.13;101151.13;5001267;28;68796;-73
2023/05/09 03:10:16;;;;;;;;;5.67;5.00;;;;;17.45;66.10;101166.47;5003781;28;45388;-74
2023/05/09 03:12:42;;;;;;;;;7.67;4.67;;;;;17.53;66.33;101173.63;5001783;28;45421;-72
2023/05/09 03:15:08;;;;;;;;;6.00;4.67;;;;;17.34;66.67;101150.75;5019324;28;45851;-73
2023/05/09 03:17:34;;;;;;;;;5.00;4.67;;;;;17.41;67.27;101162.44;5019511;28;45505;-74
2023/05/09 03:19:59;;;;;;;;;5.33;5.00;;;;;17.10;66.86;101122.19;5001497;28;45503;-76
2023/05/09 03:22:25;;;;;;;;;6.00;6.00;;;;;17.44;67.11;101172.03;5001731;28;45591;-73
2023/05/09 03:24:50;;;;;;;;;5.33;5.33;;;;;17.34;67.55;101164.19;5001418;28;46588;-74
2023/05/09 03:27:16;;;;;;;;;5.67;5.67;;;;;17.33;67.72;101154.44;5001287;28;45265;-73
2023/05/09 03:29:41;;;;;;;;;6.00;6.00;;;;;17.44;67.72;101177.41;5019533;28;45611;-73
2023/05/09 03:32:07;;;;;;;;;6.00;4.67;;;;;17.42;67.54;101180.28;5019682;28;45527;-73
2023/05/09 03:34:32;;;;;;;;;4.67;4.00;;;;;17.32;67.76;101161.69;5019402;28;46045;-74
2023/05/09 03:36:58;;;;;;;;;4.00;4.00;;;;;17.12;67.62;101111.25;5019190;28;45501;-74
2023/05/09 03:39:23;;;;;;;;;3.00;3.00;;;;;17.18;67.41;101127.50;5019396;28;45378;-74
2023/05/09 03:41:48;;;;;;;;;3.67;3.67;;;;;17.27;67.05;101147.13;5019157;28;45470;-74
2023/05/09 03:44:14;;;;;;;;;4.67;4.67;;;;;17.37;66.35;101169.19;5019185;28;45496;-75
2023/05/09 03:46:39;;;;;;;;;2.50;2.50;;;;;17.21;65.14;101154.00;5019153;28;45402;-74
2023/05/09 03:49:05;;;;;;;;;4.00;2.67;;;;;17.22;64.75;101153.03;5019139;28;45326;-73
2023/05/09 03:51:31;;;;;;;;;3.00;3.00;;;;;17.17;65.49;101163.44;5019245;28;45234;-73
2023/05/09 03:53:56;;;;;;;;;4.00;2.75;;;;;17.15;66.27;101154.72;5018626;28;46885;-73
2023/05/09 03:56:22;;;;;;;;;4.00;4.00;;;;;17.17;66.77;101152.69;5000590;28;45495;-74
2023/05/09 03:58:47;;;;;;;;;2.00;2.00;;;;;17.03;65.78;101123.91;5019567;28;45430;-74
2023/05/09 04:01:13;;;;;;;;;4.67;4.00;;;;;17.19;65.37;101160.56;5020905;28;45464;-74
2023/05/09 04:03:39;;;;;;;;;2.00;2.00;;;;;17.12;64.02;101149.72;5000804;28;48609;-75
2023/05/09 04:06:04;;;;;;;;;4.00;4.00;;;;;17.07;64.42;101157.47;5001279;28;45910;-74
2023/05/09 04:08:31;;;;;;;;;2.50;2.50;;;;;16.98;64.61;101139.72;5019322;28;45462;-73
2023/05/09 04:10:56;;;;;;;;;2.75;2.75;;;;;16.95;65.20;101154.34;5000598;28;45615;-74
2023/05/09 04:13:22;;;;;;;;;4.00;3.00;;;;;16.79;65.93;101137.44;5000549;28;47410;-74
2023/05/09 04:15:47;;;;;;;;;2.67;2.67;;;;;16.80;66.01;101128.38;5018508;28;45441;-73
2023/05/09 04:18:12;;;;;;;;;3.00;3.00;;;;;16.84;66.86;101145.84;5018565;28;45336;-74
2023/05/09 04:20:38;;;;;;;;;3.25;3.25;;;;;16.86;66.89;101150.03;5018417;28;45396;-74
2023/05/09 04:23:03;;;;;;;;;3.00;3.00;;;;;16.85;67.05;101136.78;5000097;28;48910;-75
2023/05/09 04:25:30;;;;;;;;;1.75;1.75;;;;;16.75;65.42;101141.50;5000648;28;45854;-75
2023/05/09 04:27:55;;;;;;;;;4.00;3.00;;;;;16.67;64.64;101140.53;5000578;28;45369;-74
2023/05/09 04:30:21;;;;;;;;;3.00;2.25;;;;;16.09;65.40;101044.28;5019082;28;45320;-73
2023/05/09 04:32:47;;;;;;;;;1.00;1.00;;;;;16.66;64.13;101138.88;5018418;28;46000;-73
2023/05/09 04:35:13;;;;;;;;;3.33;2.00;;;;;16.61;63.68;101148.41;5017986;28;45237;-73
2023/05/09 04:37:39;;;;;;;;;3.67;3.67;;;;;16.54;64.16;101124.09;5018471;28;45290;-74
2023/05/09 04:40:04;;;;;;;;;1.50;1.00;;;;;16.53;63.00;101138.53;5018107;28;45280;-74
2023/05/09 04:42:32;;;;;;;;;1.00;1.00;;;;;16.34;62.69;101101.38;5017493;28;45516;-73
2023/05/09 04:44:58;;;;;;;;;1.50;1.25;;;;;16.40;62.52;101122.13;5018003;28;45547;-75
2023/05/09 04:47:24;;;;;;;;;0.00;0.00;;;;;16.42;62.83;101117.47;5017964;28;45311;-74
2023/05/09 04:49:49;;;;;;;;;1.00;1.00;;;;;16.48;63.01;101124.81;5018279;28;45532;-74
2023/05/09 04:52:15;;;;;;;;;1.50;1.50;;;;;16.11;62.73;101058.34;4999995;28;46388;-73
2023/05/09 04:54:40;;;;;;;;;2.33;1.33;;;;;16.42;63.22;101104.03;5017697;28;45309;-74
2023/05/09 04:57:05;;;;;;;;;1.00;1.00;;;;;16.47;63.24;101123.13;4999804;28;45894;-73
2023/05/09 04:59:31;;;;;;;;;2.33;1.00;;;;;15.93;63.30;101042.47;5000321;28;45279;-75
2023/05/09 05:01:56;;;;;;;;;1.25;1.25;;;;;16.34;63.96;101112.09;5000015;28;48757;-75
2023/05/09 05:04:22;;;;;;;;;1.00;1.00;;;;;16.34;64.20;101106.72;5017850;28;45429;-73
2023/05/09 05:06:47;;;;;;;;;1.50;0.00;;;;;16.20;63.26;101099.38;5000340;28;45298;-73
2023/05/09 05:09:13;;;;;;;;;2.00;2.00;;;;;16.03;63.96;101067.28;4999788;28;45534;-73
2023/05/09 05:11:38;;;;;;;;;2.33;1.67;;;;;16.15;64.42;101101.75;5016721;28;66885;-74
2023/05/09 05:14:03;;;;;;;;;1.00;1.00;;;;;16.00;64.13;101067.59;5017682;28;45189;-73
2023/05/09 05:16:29;;;;;;;;;1.75;1.75;;;;;15.60;64.42;101004.16;5017023;28;45551;-74
2023/05/09 05:18:54;;;;;;;;;2.75;1.50;;;;;16.06;65.41;101092.91;5017843;28;45179;-74
2023/05/09 05:21:19;;;;;;;;;6.00;3.00;;;;;16.05;65.11;101081.34;5017662;28;45473;-74
2023/05/09 05:23:47;;;;;;;;;1.75;1.75;;;;;16.16;65.25;101098.06;4997642;28;45548;-75
2023/05/09 05:26:13;;;;;;;;;3.00;2.00;;;;;16.08;64.77;101078.31;4997715;28;45257;-72
2023/05/09 05:28:38;;;;;;;;;2.33;2.33;;;;;16.18;65.13;101085.31;5017769;28;45266;-73
2023/05/09 05:31:04;;;;;;;;;1.00;1.00;;;;;16.19;65.43;101093.19;4999446;28;48164;-74
2023/05/09 05:33:29;;;;;;;;;4.67;3.00;;;;;16.08;66.04;101081.00;4997673;28;45767;-75
2023/05/09 05:35:54;;;;;;;;;1.33;1.33;;;;;15.42;66.00;100966.84;5017125;28;45303;-73
2023/05/09 05:38:20;;;;;;;;;2.00;2.00;;;;;15.97;66.87;101073.28;5016518;28;45635;-75
2023/05/09 05:40:45;;;;;;;;;3.00;3.00;;;;;16.05;66.61;101080.50;5016167;28;45830;-74
2023/05/09 05:43:10;;;;;;;;;1.00;1.00;;;;;16.02;66.90;101070.13;4998990;28;45292;-74
2023/05/09 05:45:36;;;;;;;;;5.00;3.00;;;;;16.06;66.28;101077.66;4996491;28;45333;-75
2023/05/09 05:48:02;;;;;;;;;4.00;2.33;;;;;15.98;66.85;101064.25;4998342;28;45594;-74
2023/05/09 05:50:27;;;;;;;;;3.67;3.33;;;;;15.98;65.70;101069.59;5016825;28;47830;-74
2023/05/09 05:52:53;;;;;;;;;1.25;1.25;;;;;15.96;65.83;101076.16;4997509;28;45401;-75
2023/05/09 05:55:18;;;;;;;;;1.25;1.25;;;;;15.84;65.92;101064.97;5016245;28;45174;-74
2023/05/09 05:57:46;;;;;;;;;4.00;4.00;;;;;15.74;65.56;101048.22;5018212;28;45226;-73
2023/05/09 06:00:13;;;;;;;;;1.00;1.00;;;;;15.78;65.54;101062.94;4998843;28;47536;-72
2023/05/09 06:02:42;;;;;;;;;2.00;1.00;;;;;15.79;65.48;101067.28;5016858;28;45459;-74
2023/05/09 06:05:07;;;;;;;;;1.00;1.00;;;;;15.66;65.72;101059.78;5015601;28;45376;-73
2023/05/09 06:07:33;;;;;;;;;1.67;1.00;;;;;15.53;65.90;101044.19;5017314;28;45270;-74
2023/05/09 06:09:58;;;;;;;;;4.00;4.00;;;;;15.52;66.26;101031.78;4997203;28;47355;-73
2023/05/09 06:12:23;;;;;;;;;2.67;2.67;;;;;15.66;66.07;101042.88;5015099;28;46361;-73
2023/05/09 06:14:49;;;;;;;;;1.00;1.00;;;;;15.48;65.66;101014.38;5015372;28;45479;-74
2023/05/09 06:17:14;;;;;;;;;3.33;1.67;;;;;15.71;65.66;101043.19;4998694;28;45558;-73
2023/05/09 06:19:39;;;;;;;;;1.00;1.00;;;;;15.65;65.24;101035.84;5015558;28;46375;-79
2023/05/09 06:22:05;;;;;;;;;2.00;1.00;;;;;15.10;65.55;100956.16;5000211;28;54535;-76
2023/05/09 06:24:30;;;;;;;;;1.00;1.00;;;;;15.46;65.32;101012.88;4998256;28;45352;-74
2023/05/09 06:26:55;;;;;;;;;1.00;1.00;;;;;15.48;65.71;101017.06;5016899;28;45520;-73
2023/05/09 06:29:21;;;;;;;;;2.25;1.00;;;;;14.85;65.37;100910.66;4998637;28;48357;-72
2023/05/09 06:31:46;;;;;;;;;1.33;1.33;;;;;15.34;65.97;100979.41;4998463;28;46748;-74
2023/05/09 06:34:11;;;;;;;;;2.50;1.50;;;;;15.68;65.63;101032.81;4998500;28;45284;-71
2023/05/09 06:36:37;;;;;;;;;1.00;1.00;;;;;15.67;65.09;101028.47;5016533;28;45675;-74
2023/05/09 06:39:02;;;;;;;;;1.00;1.00;;;;;14.20;65.18;100781.34;5015289;28;68431;-74
2023/05/09 06:41:27;;;;;;;;;1.00;1.00;;;;;15.70;65.47;101020.06;5016078;28;45293;-73
2023/05/09 06:43:53;;;;;;;;;2.00;2.00;;;;;15.79;65.37;101016.34;4998538;28;45296;-72
2023/05/09 06:46:18;;;;;;;;;2.00;2.00;;;;;15.66;65.74;100989.25;4998364;28;45351;-73
2023/05/09 06:48:43;;;;;;;;;2.00;1.67;;;;;15.80;65.50;101013.50;5016106;28;45563;-73
2023/05/09 06:51:10;;;;;;;;;1.00;1.00;;;;;15.81;65.94;101014.34;4990025;28;45568;-72
2023/05/09 06:53:36;;;;;;;;;3.00;2.00;;;;;15.77;65.53;101007.66;5016119;28;45226;-74
2023/05/09 06:56:01;;;;;;;;;3.33;2.00;;;;;15.78;64.89;101014.69;4998721;28;45537;-74
2023/05/09 06:58:27;;;;;;;;;4.00;2.75;;;;;15.75;65.72;100998.94;5015853;28;45488;-71
2023/05/09 07:00:52;;;;;;;;;5.00;5.00;;;;;15.72;65.90;100994.78;5013716;28;45584;-74
2023/05/09 07:03:18;;;;;;;;;1.00;1.00;;;;;15.69;65.56;100989.75;5003757;28;45251;-73
2023/05/09 07:05:43;;;;;;;;;1.25;1.25;;;;;15.79;65.81;101001.09;5015448;28;45200;-73
2023/05/09 07:08:09;;;;;;;;;2.33;2.33;;;;;14.98;66.05;100872.63;5010008;28;45546;-74
2023/05/09 07:10:34;;;;;;;;;2.00;2.00;;;;;15.66;65.61;100997.31;5015488;28;45468;-74
2023/05/09 07:13:00;;;;;;;;;2.00;2.00;;;;;15.50;66.66;100964.13;4999485;28;45369;-74
2023/05/09 07:15:25;;;;;;;;;1.00;1.00;;;;;15.11;66.79;100902.41;4987348;28;45584;-76
2023/05/09 07:17:51;;;;;;;;;3.33;2.00;;;;;15.64;67.38;100977.88;5000435;28;51713;-73
2023/05/09 07:20:17;;;;;;;;;1.67;1.67;;;;;15.23;66.80;100902.91;5006909;28;45822;-74
2023/05/09 07:22:42;;;;;;;;;2.75;2.75;;;;;15.63;66.62;100973.53;5016101;28;45377;-73
2023/05/09 07:25:08;;;;;;;;;4.33;4.33;;;;;15.62;66.86;100967.34;5015774;28;45281;-76
2023/05/09 07:27:35;;;;;;;;;3.00;3.00;;;;;15.60;66.64;100957.78;5014292;28;46466;-74
2023/05/09 07:30:04;;;;;;;;;3.00;3.00;;;;;15.46;66.91;100930.66;5015229;28;45231;-73
2023/05/09 07:32:29;;;;;;;;;3.00;2.00;;;;;15.65;66.53;100952.75;4996790;28;45231;-74
2023/05/09 07:34:55;;;;;;;;;2.67;2.67;;;;;15.01;66.80;100852.72;4997421;28;45623;-73
2023/05/09 07:37:20;;;;;;;;;2.00;2.00;;;;;14.86;67.00;100831.19;5006313;28;46521;-76
2023/05/09 07:39:48;;;;;;;;;1.75;1.75;;;;;15.52;67.02;100929.97;4996487;28;45471;-75
2023/05/09 07:42:14;;;;;;;;;2.00;2.00;;;;;15.08;66.73;100845.69;4981082;28;45334;-76
2023/05/09 07:44:40;;;;;;;;;3.00;1.67;;;;;15.40;67.07;100907.22;5002305;28;45551;-74
2023/05/09 07:47:05;;;;;;;;;3.75;2.25;;;;;15.64;67.37;100948.41;4981927;28;47579;-75
2023/05/09 07:49:31;;;;;;;;;4.00;4.00;;;;;15.64;67.54;100940.38;5007695;28;45585;-76
2023/05/09 07:51:56;;;;;;;;;1.25;1.25;;;;;15.63;68.03;100927.97;4989033;28;45615;-74
2023/05/09 07:54:22;;;;;;;;;2.00;2.00;;;;;15.30;68.38;100863.72;4997273;28;45325;-80
2023/05/09 07:56:47;;;;;;;;;3.00;3.00;;;;;15.63;68.41;100914.56;5006243;28;45294;-73
2023/05/09 07:59:13;;;;;;;;;1.75;1.75;;;;;15.83;68.27;100923.88;4999037;28;45292;-74
2023/05/09 08:01:38;;;;;;;;;3.00;3.00;;;;;15.75;67.87;100910.47;4997570;28;45314;-74
2023/05/09 08:04:07;;;;;;;;;3.67;2.67;;;;;15.69;68.12;100893.25;4994197;28;45708;-73
2023/05/09 08:06:33;;;;;;;;;4.00;4.00;;;;;15.90;68.37;100914.13;5004017;28;46970;-75
2023/05/09 08:08:59;;;;;;;;;2.67;2.67;;;;;15.94;68.47;100915.44;5010526;28;45466;-74
2023/05/09 08:11:24;;;;;;;;;7.00;5.33;;;;;15.90;68.51;100924.00;4997899;28;45309;-74
2023/05/09 08:13:49;;;;;;;;;4.00;4.00;;;;;15.93;69.16;100921.81;5008711;28;45631;-76
2023/05/09 08:16:16;;;;;;;;;4.00;4.00;;;;;15.98;69.22;100923.97;4998866;28;47482;-77
2023/05/09 08:18:42;;;;;;;;;8.33;7.33;;;;;15.79;69.10;100885.00;5000307;28;45385;-78
2023/05/09 08:21:07;;;;;;;;;4.67;4.67;;;;;15.80;69.07;100879.47;5017660;28;45544;-74
2023/05/09 08:23:32;;;;;;;;;6.67;6.67;;;;;15.97;69.66;100904.34;4998814;28;45676;-74
2023/05/09 08:25:58;;;;;;;;;4.00;2.00;;;;;16.00;69.64;100889.75;5015981;28;45857;-76
2023/05/09 08:28:23;;;;;;;;;2.75;2.75;;;;;16.19;69.58;100904.56;5016458;28;45567;-76
2023/05/09 08:30:50;;;;;;;;;2.00;2.00;;;;;16.20;69.10;100906.25;4998061;28;45501;-75
2023/05/09 08:33:15;;;;;;;;;4.33;4.33;;;;;16.23;69.07;100895.19;4999007;28;45479;-76
2023/05/09 08:35:41;;;;;;;;;3.75;3.75;;;;;16.05;69.26;100863.28;4996239;28;47436;-74
2023/05/09 08:38:06;;;;;;;;;5.00;4.00;;;;;15.48;69.13;100767.88;5002260;28;45535;-77
2023/05/09 08:40:35;;;;;;;;;3.25;3.25;;;;;16.20;69.59;100880.25;4999777;28;45369;-77
2023/05/09 08:43:04;;;;;;;;;2.67;2.67;;;;;16.20;69.59;100868.69;5009967;28;45518;-74
2023/05/09 08:45:35;;;;;;;;;3.33;3.33;;;;;16.34;70.12;100889.41;4992690;28;47598;-75
2023/05/09 08:48:05;;;;;;;;;4.33;4.33;;;;;16.33;70.15;100875.16;4995140;28;46007;-75
2023/05/09 08:50:31;;;;;;;;;5.00;5.00;;;;;16.41;70.07;100877.75;5005065;28;45702;-74
2023/05/09 08:52:56;;;;;;;;;5.00;4.00;;;;;16.35;70.14;100861.53;5000627;28;45394;-74
2023/05/09 08:55:22;;;;;;;;;5.33;4.00;;;;;16.33;69.83;100860.91;4997047;28;48641;-75
2023/05/09 08:57:48;;;;;;;;;4.67;4.67;;;;;16.27;70.20;100840.16;5013473;28;45824;-73
2023/05/09 09:00:16;;;;;;;;;3.00;3.00;;;;;16.49;69.98;100873.38;5008197;28;45560;-74
2023/05/09 09:02:42;;;;;;;;;4.00;4.00;;;;;16.53;70.73;100870.13;5000273;28;45533;-74
2023/05/09 09:05:08;;;;;;;;;5.67;4.67;;;;;16.26;70.68;100825.91;5014166;28;46454;-73
2023/05/09 09:07:35;;;;;;;;;7.00;5.00;;;;;16.23;70.80;100837.00;4992961;28;45989;-75
2023/05/09 09:10:03;;;;;;;;;4.00;4.00;;;;;16.32;71.13;100853.88;4984288;28;45607;-75
2023/05/09 09:12:28;;;;;;;;;4.00;4.00;;;;;16.34;71.36;100852.66;5017307;28;45667;-74
2023/05/09 09:14:55;;;;;;;;;4.67;4.67;;;;;16.45;71.41;100856.78;5015834;28;47376;-74
2023/05/09 09:17:26;;;;;;;;;4.67;4.67;;;;;16.53;71.34;100856.72;4994132;28;45880;-76
2023/05/09 09:19:56;;;;;;;;;4.00;4.00;;;;;16.48;70.99;100834.13;4995609;28;45561;-74
2023/05/09 09:22:23;;;;;;;;;5.00;5.00;;;;;16.54;71.21;100833.41;5014788;28;45405;-73
2023/05/09 09:24:49;;;;;;;;;7.00;4.33;;;;;16.51;71.13;100828.41;5015691;28;46575;-75
2023/05/09 09:27:15;;;;;;;;;4.33;4.33;;;;;16.45;71.23;100829.97;5013809;28;45270;-74
2023/05/09 09:29:41;;;;;;;;;3.33;3.00;;;;;16.53;71.30;100843.28;4996933;28;45530;-78
2023/05/09 09:32:06;;;;;;;;;4.67;4.67;;;;;16.37;71.48;100828.16;5007780;28;45749;-74
2023/05/09 09:34:32;;;;;;;;;4.67;3.33;;;;;16.36;71.58;100828.34;5016242;28;46501;-74
2023/05/09 09:36:57;;;;;;;;;5.00;3.33;;;;;16.41;71.74;100836.66;4999116;28;45456;-74
2023/05/09 09:39:23;;;;;;;;;5.33;5.33;;;;;16.36;72.09;100839.91;5016937;28;45315;-74
2023/05/09 09:41:48;;;;;;;;;1.00;1.00;;;;;16.38;72.26;100834.34;4997980;28;45555;-74
2023/05/09 09:44:19;;;;;;;;;2.67;2.00;;;;;15.99;71.96;100770.94;4998262;28;47218;-74
2023/05/09 09:46:47;;;;;;;;;1.67;1.67;;;;;16.28;71.54;100815.00;4999161;28;45505;-73
2023/05/09 09:49:13;;;;;;;;;3.67;2.33;;;;;16.45;71.44;100846.06;5016516;28;45463;-74
2023/05/09 09:51:40;;;;;;;;;7.33;7.33;;;;;16.40;71.22;100846.56;5010421;28;45595;-74
2023/05/09 09:54:10;;;;;;;;;2.00;1.50;;;;;16.27;71.54;100827.56;4997346;28;47812;-74
2023/05/09 09:56:47;;;;;;;;;0.75;0.75;;;;;16.42;71.35;100839.22;5016487;28;45546;-73
2023/05/09 09:59:17;;;;;;;;;2.00;2.00;;;;;16.33;70.98;100823.34;4998993;28;45315;-74
2023/05/09 10:01:59;;;;;;;;;1.50;1.00;;;;;16.42;71.39;100841.88;5014187;28;45646;-74
2023/05/09 10:04:30;;;;;;;;;1.00;1.00;;;;;16.28;71.66;100828.41;5015892;28;46698;-74
2023/05/09 10:06:58;;;;;;;;;2.00;2.00;;;;;15.85;72.06;100754.81;5005785;28;45199;-75
2023/05/09 10:09:25;;;;;;;;;4.33;3.00;;;;;16.42;71.80;100838.38;5000283;28;45377;-76
2023/05/09 10:11:52;;;;;;;;;1.00;1.00;;;;;16.47;71.63;100827.94;5008198;28;45584;-75
2023/05/09 10:14:20;;;;;;;;;2.00;2.00;;;;;16.47;71.50;100819.03;5008562;28;45623;-74
2023/05/09 10:16:48;;;;;;;;;0.50;0.50;;;;;16.40;71.57;100813.53;5014784;28;45363;-74
2023/05/09 10:19:17;;;;;;;;;3.00;1.67;;;;;16.25;71.71;100775.94;4999390;28;45585;-73
2023/05/09 10:21:44;;;;;;;;;1.00;1.00;;;;;16.28;72.03;100782.81;4980420;28;45317;-74
2023/05/09 10:24:10;;;;;;;;;3.33;3.33;;;;;16.40;72.29;100797.44;5014936;28;46492;-73
2023/05/09 10:26:39;;;;;;;;;2.00;2.00;;;;;16.61;72.33;100812.84;5015000;28;45250;-73
2023/05/09 10:29:09;;;;;;;;;0.33;0.33;;;;;16.66;71.56;100811.34;4979642;28;45516;-75
2023/05/09 10:31:38;;;;;;;;;4.00;3.00;;;;;16.55;72.00;100786.75;5007049;28;45504;-72
2023/05/09 10:34:09;;;;;;;;;2.00;2.00;;;;;16.20;71.86;100715.78;5013233;28;45980;-73
2023/05/09 10:36:35;;;;;;;;;3.50;1.00;;;;;16.50;71.82;100752.41;5014743;28;45614;-73
2023/05/09 10:39:01;;;;;;;;;2.75;2.00;;;;;16.76;71.93;100803.03;4991880;28;45504;-75
2023/05/09 10:41:26;;;;;;;;;3.25;2.50;;;;;15.98;71.63;100672.72;4997058;28;45450;-70
2023/05/09 10:43:56;;;;;;;;;1.00;1.00;;;;;16.31;71.76;100718.06;5012005;28;46289;-74
2023/05/09 10:46:22;;;;;;;;;1.75;1.00;;;;;16.82;71.75;100778.16;5014498;28;45420;-74
2023/05/09 10:48:48;;;;;;;;;3.25;2.00;;;;;16.37;71.48;100698.53;5009993;28;45491;-74
2023/05/09 10:51:15;;;;;;;;;1.50;1.50;;;;;16.41;71.61;100695.28;4994584;28;45667;-77
2023/05/09 10:53:47;;;;;;;;;2.00;1.00;;;;;16.98;71.44;100787.84;4996260;28;48725;-73
2023/05/09 10:56:22;;;;;;;;;1.25;1.25;;;;;16.97;71.59;100762.03;4998191;28;45316;-75
2023/05/09 10:58:48;;;;;;;;;3.00;2.00;;;;;17.02;71.75;100759.63;5015836;28;45429;-74
2023/05/09 11:01:13;;;;;;;;;1.00;1.00;;;;;17.20;71.52;100762.75;5015199;28;45361;-73
2023/05/09 11:03:52;;;;;;;;;1.25;1.25;;;;;17.37;71.04;100771.44;4996985;28;46924;-73
2023/05/09 11:06:40;;;;;;;;;0.00;0.00;;;;;17.44;71.04;100771.53;5015803;28;45502;-72
2023/05/09 11:09:26;;;;;;;;;2.00;2.00;;;;;17.51;70.27;100767.06;5015765;28;45312;-74
2023/05/09 11:11:55;;;;;;;;;4.00;2.00;;;;;17.56;70.95;100767.34;5015935;28;45436;-75
2023/05/09 11:14:43;;;;;;;;;1.00;1.00;;;;;17.54;70.91;100766.69;4997906;28;48523;-73
2023/05/09 11:17:21;;;;;;;;;1.75;1.75;;;;;17.57;70.71;100761.75;5001251;28;45514;-74
2023/05/09 11:19:46;;;;;;;;;1.00;1.00;;;;;17.63;70.25;100757.50;5002204;28;45462;-74
2023/05/09 11:22:16;;;;;;;;;1.00;0.75;;;;;17.71;70.03;100761.97;5000063;28;45449;-74
2023/05/09 11:25:09;;;;;;;;;3.25;3.00;;;;;17.76;70.04;100760.34;4981713;28;47659;-74